Sugar Tree Ridge, Ohio
Current Conditions -  °F | °C
As of 11:54 AM on Saturday 25 Oct 2014 (Local Time) from KILN Reporting Station
Light Rain Light Rain  
Wind Chill: 61°   Ceiling: 2500
Heat Index: 61°   Visibility: 7mi
Dew Point: 51°   Wind: 14mph
Humidity: 70%   Direction: 250°WSW
Pressure: 29.96"   Gusts: NA
Location:  39.1546°N, 83.569°W
Report Text: KILN 251554Z AUTO 25012KT 7SM -RA BKN025 OVC031 16/11 A2996 RMK AO2 RAB33 SLP151 P0000 T01610106
Loading
Personal Weather Stations






























Interactive Weather Map
Tropical Storm Tracking
New forecast layout! Learn more

10-Day Weather Forecast

Advertisements
Track Severe Weather on mobile